createdAt,value
2022-08-07T00:01:00.358Z,25.99
2022-08-07T00:04:15.670Z,26.00
2022-08-07T00:07:19.021Z,26.00
2022-08-07T00:10:26.417Z,25.97
2022-08-07T00:13:29.656Z,26.01
2022-08-07T00:16:31.713Z,26.02
2022-08-07T00:19:59.988Z,26.02
2022-08-07T00:22:55.905Z,26.02
2022-08-07T00:26:02.798Z,26.01
2022-08-07T00:29:13.037Z,25.98
2022-08-07T00:32:19.000Z,25.95
2022-08-07T00:35:30.612Z,25.94
2022-08-07T00:38:34.218Z,25.85
2022-08-07T00:41:37.343Z,25.95
2022-08-07T00:44:55.899Z,25.94
2022-08-07T00:48:08.985Z,25.94
2022-08-07T00:51:20.636Z,25.94
2022-08-07T00:54:23.371Z,25.89
2022-08-07T00:57:26.883Z,25.95
2022-08-07T01:00:36.187Z,25.96
2022-08-07T01:03:55.610Z,25.94
2022-08-07T01:07:01.644Z,25.93
2022-08-07T01:10:11.314Z,25.91
2022-08-07T01:13:16.484Z,25.90
2022-08-07T01:16:29.967Z,25.85
2022-08-07T01:19:34.434Z,25.91
2022-08-07T01:22:54.354Z,25.93
2022-08-07T01:26:08.453Z,25.90
2022-08-07T01:29:15.814Z,25.86
2022-08-07T01:32:18.921Z,25.87
2022-08-07T01:35:24.370Z,25.87
2022-08-07T01:38:29.285Z,25.87
2022-08-07T01:41:40.821Z,25.86
2022-08-07T01:45:10.108Z,25.87
2022-08-07T01:48:30.580Z,25.85
2022-08-07T01:52:03.694Z,25.84
2022-08-07T01:55:00.970Z,25.84
2022-08-07T01:58:29.693Z,25.82
2022-08-07T02:02:01.684Z,25.80
2022-08-07T02:05:16.187Z,25.75
2022-08-07T02:08:40.576Z,25.77
2022-08-07T02:12:04.879Z,25.81
2022-08-07T02:15:14.232Z,25.80
2022-08-07T02:18:19.437Z,25.79
2022-08-07T02:21:23.790Z,25.71
2022-08-07T02:24:30.127Z,25.60
2022-08-07T02:27:34.279Z,25.53
2022-08-07T02:30:39.648Z,25.66
2022-08-07T02:34:01.888Z,25.73
2022-08-07T02:37:08.872Z,25.75
2022-08-07T02:40:31.127Z,25.72
2022-08-07T02:43:39.592Z,25.64
2022-08-07T02:46:46.548Z,25.62
2022-08-07T02:49:58.068Z,25.63
2022-08-07T02:53:11.858Z,25.69
2022-08-07T02:56:21.903Z,25.69
2022-08-07T02:59:27.662Z,25.68
2022-08-07T03:02:36.023Z,25.66
2022-08-07T03:05:41.339Z,25.70
2022-08-07T03:08:44.487Z,25.73
2022-08-07T03:11:52.536Z,25.74
2022-08-07T03:15:07.864Z,25.68
2022-08-07T03:18:17.540Z,25.64
2022-08-07T03:21:24.554Z,25.67
2022-08-07T03:24:28.456Z,25.70
2022-08-07T03:27:58.794Z,25.72
2022-08-07T03:31:17.546Z,25.73
2022-08-07T03:34:22.883Z,25.73
2022-08-07T03:37:37.331Z,25.75
2022-08-07T03:40:57.476Z,25.77
2022-08-07T03:44:02.062Z,25.72
2022-08-07T03:47:13.927Z,25.78
2022-08-07T03:50:22.999Z,25.79
2022-08-07T03:54:00.574Z,25.81
2022-08-07T03:57:03.309Z,25.83
2022-08-07T04:00:08.317Z,25.85
2022-08-07T04:03:18.594Z,25.80
2022-08-07T04:06:37.634Z,25.85
2022-08-07T04:09:50.336Z,25.82
2022-08-07T04:12:58.093Z,25.87
2022-08-07T04:16:02.703Z,25.90
2022-08-07T04:19:14.894Z,25.85
2022-08-07T04:22:29.109Z,25.90
2022-08-07T04:25:40.978Z,25.89
2022-08-07T04:28:45.858Z,25.90
2022-08-07T04:32:03.099Z,25.91
2022-08-07T04:35:11.531Z,25.91
2022-08-07T04:38:15.854Z,25.89
2022-08-07T04:41:22.879Z,25.93
2022-08-07T04:44:27.178Z,25.96
2022-08-07T04:47:57.666Z,25.92
2022-08-07T04:51:27.701Z,25.86
2022-08-07T04:54:39.323Z,25.87
2022-08-07T04:58:27.124Z,25.91
2022-08-07T05:01:44.861Z,25.91
2022-08-07T05:05:54.192Z,25.84
2022-08-07T05:09:01.494Z,25.88
2022-08-07T05:12:15.594Z,25.89
2022-08-07T05:15:42.418Z,25.94
2022-08-07T05:18:51.415Z,25.96
2022-08-07T05:22:00.495Z,25.93
2022-08-07T05:25:11.678Z,25.90
2022-08-07T05:28:29.195Z,25.90
2022-08-07T05:31:38.544Z,25.95
2022-08-07T05:34:48.798Z,25.94
2022-08-07T05:38:09.036Z,25.97
2022-08-07T05:41:15.678Z,26.00
2022-08-07T05:44:29.391Z,26.01
2022-08-07T05:47:38.469Z,26.07
2022-08-07T05:50:59.628Z,26.08
2022-08-07T05:54:13.134Z,26.11
2022-08-07T05:57:30.403Z,26.14
2022-08-07T06:00:41.062Z,26.16
2022-08-07T06:03:58.932Z,26.16
2022-08-07T06:07:10.371Z,26.18
2022-08-07T06:10:28.602Z,26.24
2022-08-07T06:14:10.927Z,26.26
2022-08-07T06:16:56.296Z,26.34
2022-08-07T06:20:05.668Z,26.32
2022-08-07T06:23:46.402Z,26.38
2022-08-07T06:26:33.319Z,26.42
2022-08-07T06:29:38.985Z,26.29
2022-08-07T06:32:42.914Z,26.34
2022-08-07T06:36:06.181Z,26.34
2022-08-07T06:40:12.875Z,26.41
2022-08-07T06:42:37.583Z,26.40
2022-08-07T06:46:01.200Z,26.44
2022-08-07T06:49:04.847Z,26.42
2022-08-07T06:52:11.455Z,26.50
2022-08-07T06:55:31.287Z,26.52
2022-08-07T07:00:13.060Z,26.57
2022-08-07T07:02:54.491Z,26.58
2022-08-07T07:06:02.926Z,26.55
2022-08-07T07:09:36.238Z,26.60
2022-08-07T07:12:53.461Z,26.64
2022-08-07T07:16:03.355Z,26.64
2022-08-07T07:19:54.378Z,26.68
2022-08-07T07:22:33.983Z,26.69
2022-08-07T07:26:34.981Z,26.73
2022-08-07T07:29:56.397Z,26.76
2022-08-07T07:32:49.449Z,26.80
2022-08-07T07:36:04.865Z,26.84
2022-08-07T07:39:09.260Z,26.85
2022-08-07T07:42:19.779Z,26.87
2022-08-07T07:46:53.203Z,26.88
2022-08-07T07:48:52.022Z,26.92
2022-08-07T07:52:03.953Z,26.96
2022-08-07T07:55:09.378Z,27.04
2022-08-07T07:58:15.481Z,27.05
2022-08-07T08:02:03.271Z,27.07
2022-08-07T08:04:45.792Z,27.12
2022-08-07T08:08:01.423Z,27.12
2022-08-07T08:11:08.392Z,27.13
2022-08-07T08:14:11.212Z,27.23
2022-08-07T08:17:58.243Z,27.27
2022-08-07T08:20:39.719Z,27.29
2022-08-07T08:24:06.936Z,27.28
2022-08-07T08:27:34.952Z,27.32
2022-08-07T08:30:42.800Z,27.31
2022-08-07T08:33:57.962Z,27.39
2022-08-07T08:37:03.568Z,27.39
2022-08-07T08:40:33.175Z,27.40
2022-08-07T08:43:58.723Z,27.51
2022-08-07T08:47:10.094Z,27.55
2022-08-07T08:50:35.278Z,27.62
2022-08-07T08:53:55.089Z,27.69
2022-08-07T08:57:00.886Z,27.77
2022-08-07T09:00:09.565Z,27.63
2022-08-07T09:03:55.218Z,27.77
2022-08-07T09:07:34.003Z,27.76
2022-08-07T09:11:24.214Z,27.92
2022-08-07T09:14:34.220Z,27.96
2022-08-07T09:17:59.505Z,27.99
2022-08-07T09:21:57.769Z,27.98
2022-08-07T09:25:18.098Z,28.08
2022-08-07T09:30:07.591Z,28.09
2022-08-07T09:31:56.186Z,28.17
2022-08-07T09:36:05.187Z,28.24
2022-08-07T09:39:11.526Z,28.24
2022-08-07T09:42:52.908Z,28.15
2022-08-07T09:47:51.997Z,28.16
2022-08-07T09:50:18.895Z,28.23
2022-08-07T09:53:26.347Z,28.14
2022-08-07T09:56:58.576Z,28.22
2022-08-07T10:00:09.046Z,28.18
2022-08-07T10:04:05.371Z,28.26
2022-08-07T10:07:53.296Z,28.34
2022-08-07T10:12:00.374Z,28.28
2022-08-07T10:14:55.655Z,28.29
2022-08-07T10:18:26.574Z,28.23
2022-08-07T10:22:14.731Z,28.19
2022-08-07T10:25:22.848Z,28.18
2022-08-07T10:29:04.686Z,28.13
2022-08-07T10:32:36.902Z,28.13
2022-08-07T10:36:29.808Z,28.15
2022-08-07T10:40:08.754Z,28.15
2022-08-07T10:43:35.149Z,28.02
2022-08-07T10:47:11.825Z,27.99
2022-08-07T10:50:25.667Z,27.98
2022-08-07T10:53:44.238Z,27.93
2022-08-07T10:56:58.261Z,27.85
2022-08-07T11:00:36.803Z,27.89
2022-08-07T11:04:11.237Z,27.85
2022-08-07T11:07:59.589Z,27.88
2022-08-07T11:11:10.622Z,27.91
2022-08-07T11:14:45.308Z,27.81
2022-08-07T11:18:37.058Z,27.77
2022-08-07T11:22:00.772Z,27.77
2022-08-07T11:25:30.503Z,27.81
2022-08-07T11:28:53.404Z,27.76
2022-08-07T11:32:08.456Z,27.74
2022-08-07T11:35:26.903Z,27.67
2022-08-07T11:38:54.189Z,27.58
2022-08-07T11:42:07.703Z,27.57
2022-08-07T11:45:35.271Z,27.63
2022-08-07T11:49:50.490Z,27.62
2022-08-07T11:53:05.243Z,27.60
2022-08-07T11:56:27.102Z,27.60
2022-08-07T12:00:11.670Z,27.52
2022-08-07T12:03:00.512Z,27.54
2022-08-07T12:06:37.845Z,27.55
2022-08-07T12:09:42.614Z,27.55
2022-08-07T12:13:00.729Z,27.47
2022-08-07T12:16:09.142Z,27.54
2022-08-07T12:19:22.025Z,27.60
2022-08-07T12:22:46.974Z,27.64
2022-08-07T12:26:46.072Z,27.61
2022-08-07T12:29:54.632Z,27.59
2022-08-07T12:33:18.797Z,27.57
2022-08-07T12:36:33.150Z,27.49
2022-08-07T12:39:43.663Z,27.55
2022-08-07T12:42:57.220Z,27.63
2022-08-07T12:46:32.857Z,27.58
2022-08-07T12:49:51.248Z,27.54
2022-08-07T12:53:19.044Z,27.49
2022-08-07T12:56:41.485Z,27.41
2022-08-07T12:59:54.769Z,27.47
2022-08-07T13:04:02.203Z,27.51
2022-08-07T13:08:12.199Z,27.50
2022-08-07T13:10:51.777Z,27.44
2022-08-07T13:14:09.465Z,27.44
2022-08-07T13:17:52.705Z,27.54
2022-08-07T13:21:50.087Z,27.49
2022-08-07T13:24:53.846Z,27.53
2022-08-07T13:28:13.231Z,27.59
2022-08-07T13:31:26.517Z,27.67
2022-08-07T13:34:50.836Z,27.67
2022-08-07T13:38:16.006Z,27.70
2022-08-07T13:41:18.011Z,27.67
2022-08-07T13:44:34.325Z,27.56
2022-08-07T13:48:07.689Z,27.51
2022-08-07T13:51:27.261Z,27.56
2022-08-07T13:54:31.147Z,27.55
2022-08-07T13:57:47.882Z,27.63
2022-08-07T14:01:12.046Z,27.72
2022-08-07T14:04:21.479Z,27.69
2022-08-07T14:07:33.607Z,27.68
2022-08-07T14:10:43.548Z,27.70
2022-08-07T14:13:56.102Z,27.63
2022-08-07T14:17:13.127Z,27.66
2022-08-07T14:20:40.602Z,27.70
2022-08-07T14:23:59.135Z,27.70
2022-08-07T14:28:09.631Z,27.71
2022-08-07T14:30:33.175Z,27.79
2022-08-07T14:33:44.958Z,27.80
2022-08-07T14:36:56.241Z,27.80
2022-08-07T14:40:17.515Z,27.78
2022-08-07T14:46:51.887Z,27.85
2022-08-07T14:50:11.523Z,27.80
2022-08-07T14:53:17.641Z,27.85
2022-08-07T14:56:43.526Z,27.89
2022-08-07T15:00:04.649Z,27.89
2022-08-07T15:03:18.976Z,27.92
2022-08-07T15:06:28.276Z,27.94
2022-08-07T15:09:59.977Z,27.93
2022-08-07T15:13:06.352Z,27.86
2022-08-07T15:16:34.994Z,27.87
2022-08-07T15:20:31.650Z,27.81
2022-08-07T15:23:20.094Z,27.68
2022-08-07T15:26:33.495Z,27.66
2022-08-07T15:30:04.494Z,27.72
2022-08-07T15:33:19.358Z,27.68
2022-08-07T15:39:59.016Z,27.55
2022-08-07T15:46:54.143Z,27.44
2022-08-07T15:50:04.971Z,27.39
2022-08-07T15:53:13.745Z,27.30
2022-08-07T15:56:21.733Z,27.24
2022-08-07T15:59:38.935Z,27.14
2022-08-07T16:02:46.909Z,27.03
2022-08-07T16:05:51.908Z,27.05
2022-08-07T16:08:57.973Z,27.00
2022-08-07T16:12:12.205Z,26.97
2022-08-07T16:15:54.504Z,26.93
2022-08-07T16:19:16.008Z,26.94
2022-08-07T16:22:33.434Z,26.89
2022-08-07T16:25:56.199Z,26.76
2022-08-07T16:30:10.764Z,26.69
2022-08-07T16:34:02.679Z,26.71
2022-08-07T16:37:02.432Z,26.66
2022-08-07T16:40:34.653Z,26.64
2022-08-07T16:44:06.722Z,26.54
2022-08-07T16:47:51.602Z,26.55
2022-08-07T16:51:20.975Z,26.44
2022-08-07T16:55:11.398Z,26.24
2022-08-07T16:59:02.334Z,26.32
2022-08-07T17:02:52.004Z,26.33
2022-08-07T17:06:29.130Z,26.22
2022-08-07T17:10:08.199Z,26.10
2022-08-07T17:13:20.470Z,26.17
2022-08-07T17:16:56.889Z,26.09
2022-08-07T17:20:14.277Z,26.09
2022-08-07T17:23:32.554Z,26.07
2022-08-07T17:26:58.128Z,26.07
2022-08-07T17:30:15.931Z,25.99
2022-08-07T17:34:08.465Z,26.00
2022-08-07T17:38:05.500Z,26.05
2022-08-07T17:41:12.455Z,25.86
2022-08-07T17:44:50.054Z,25.76
2022-08-07T17:48:05.174Z,25.66
2022-08-07T17:51:21.378Z,25.62
2022-08-07T17:54:54.597Z,25.64
2022-08-07T17:58:07.418Z,25.48
2022-08-07T18:01:21.536Z,25.49
2022-08-07T18:04:31.083Z,25.48
2022-08-07T18:07:43.919Z,25.57
2022-08-07T18:12:06.775Z,25.58
2022-08-07T18:15:09.722Z,25.58
2022-08-07T18:18:45.570Z,25.62
2022-08-07T18:21:54.867Z,25.48
2022-08-07T18:25:19.137Z,25.58
2022-08-07T18:28:58.529Z,25.55
2022-08-07T18:32:13.071Z,25.47
2022-08-07T18:35:52.016Z,25.58
2022-08-07T18:40:08.710Z,25.63
2022-08-07T18:42:55.073Z,25.56
2022-08-07T18:46:24.703Z,25.59
2022-08-07T18:50:31.639Z,25.49
2022-08-07T18:53:40.096Z,25.46
2022-08-07T18:57:30.859Z,25.36
2022-08-07T19:00:53.671Z,25.43
2022-08-07T19:04:03.890Z,25.53
2022-08-07T19:07:34.235Z,25.55
2022-08-07T19:10:49.799Z,25.46
2022-08-07T19:14:19.957Z,25.56
2022-08-07T19:17:59.055Z,25.40
2022-08-07T19:21:44.287Z,25.39
2022-08-07T19:24:48.890Z,25.43
2022-08-07T19:28:57.514Z,25.47
2022-08-07T19:31:37.204Z,25.43
2022-08-07T19:34:59.426Z,25.40
2022-08-07T19:38:15.935Z,25.43
2022-08-07T19:41:45.042Z,25.47
2022-08-07T19:44:47.869Z,25.43
2022-08-07T19:47:56.067Z,25.34
2022-08-07T19:51:04.593Z,25.31
2022-08-07T19:54:44.429Z,25.32
2022-08-07T19:58:02.455Z,25.30
2022-08-07T20:01:17.610Z,25.37
2022-08-07T20:04:31.048Z,25.39
2022-08-07T20:07:46.509Z,25.48
2022-08-07T20:10:56.771Z,25.39
2022-08-07T20:14:07.237Z,25.35
2022-08-07T20:17:18.347Z,25.28
2022-08-07T20:20:26.817Z,25.22
2022-08-07T20:23:43.288Z,25.28
2022-08-07T20:26:54.867Z,25.38
2022-08-07T20:30:00.321Z,25.43
2022-08-07T20:33:09.190Z,25.50
2022-08-07T20:36:30.390Z,25.36
2022-08-07T20:40:02.652Z,25.32
2022-08-07T20:42:59.057Z,25.26
2022-08-07T20:46:26.044Z,25.36
2022-08-07T20:49:59.782Z,25.46
2022-08-07T20:52:51.181Z,25.43
2022-08-07T20:56:00.104Z,25.38
2022-08-07T20:59:06.075Z,25.43
2022-08-07T21:02:54.015Z,25.41
2022-08-07T21:06:21.603Z,25.35
2022-08-07T21:09:51.507Z,25.27
2022-08-07T21:12:58.212Z,25.14
2022-08-07T21:16:03.528Z,25.16
2022-08-07T21:19:14.077Z,25.29
2022-08-07T21:22:19.168Z,25.31
2022-08-07T21:25:39.162Z,25.24
2022-08-07T21:28:51.058Z,25.19
2022-08-07T21:32:46.920Z,25.28
2022-08-07T21:36:04.778Z,25.42
2022-08-07T21:39:46.303Z,25.43
2022-08-07T21:42:57.096Z,25.43
2022-08-07T21:46:24.352Z,25.36
2022-08-07T21:50:02.022Z,25.40
2022-08-07T21:53:12.998Z,25.30
2022-08-07T21:56:40.260Z,25.31
2022-08-07T22:00:22.162Z,25.31
2022-08-07T22:03:32.045Z,25.15
2022-08-07T22:06:52.741Z,25.18
2022-08-07T22:10:01.277Z,25.22
2022-08-07T22:13:13.745Z,25.38
2022-08-07T22:16:44.881Z,25.42
2022-08-07T22:20:06.055Z,25.30
2022-08-07T22:23:17.291Z,25.26
2022-08-07T22:26:35.202Z,25.28
2022-08-07T22:29:49.708Z,25.32
2022-08-07T22:33:03.948Z,25.23
2022-08-07T22:36:21.600Z,25.14
2022-08-07T22:39:52.737Z,25.16
2022-08-07T22:43:02.983Z,25.12
2022-08-07T22:47:02.371Z,25.19
2022-08-07T22:50:29.112Z,25.08
2022-08-07T22:54:08.720Z,24.93
2022-08-07T22:57:37.369Z,24.98
2022-08-07T23:01:05.357Z,25.20
2022-08-07T23:04:20.105Z,25.22
2022-08-07T23:07:41.425Z,25.28
2022-08-07T23:11:18.363Z,25.36
2022-08-07T23:14:36.548Z,25.44
2022-08-07T23:17:58.985Z,25.46
2022-08-07T23:21:30.193Z,25.46
2022-08-07T23:24:56.221Z,25.37
2022-08-07T23:28:35.355Z,25.32
2022-08-07T23:34:20.951Z,25.35
2022-08-07T23:35:47.458Z,25.30
2022-08-07T23:39:12.249Z,25.31
2022-08-07T23:42:49.445Z,25.37
2022-08-07T23:46:07.654Z,25.44
2022-08-07T23:49:50.788Z,25.42
2022-08-07T23:53:05.241Z,25.32
2022-08-07T23:56:31.380Z,25.31
